sensor_id;sensor_type;location;lat;lon;timestamp;temperature;humidity
39219;DHT22;24934;52.752;6.964;2022-09-27T00:02:13;9.70;99.90
39219;DHT22;24934;52.752;6.964;2022-09-27T00:04:38;9.70;99.90
39219;DHT22;24934;52.752;6.964;2022-09-27T00:07:04;9.70;99.90
39219;DHT22;24934;52.752;6.964;2022-09-27T00:09:30;9.70;99.90
39219;DHT22;24934;52.752;6.964;2022-09-27T00:11:55;9.70;99.90
39219;DHT22;24934;52.752;6.964;2022-09-27T00:14:21;9.70;99.90
39219;DHT22;24934;52.752;6.964;2022-09-27T00:16:47;9.60;99.90
39219;DHT22;24934;52.752;6.964;2022-09-27T00:19:15;9.60;99.90
39219;DHT22;24934;52.752;6.964;2022-09-27T00:21:42;9.50;99.90
39219;DHT22;24934;52.752;6.964;2022-09-27T00:24:12;9.50;99.90
39219;DHT22;24934;52.752;6.964;2022-09-27T00:26:38;9.40;99.90
39219;DHT22;24934;52.752;6.964;2022-09-27T00:29:04;9.40;99.90
39219;DHT22;24934;52.752;6.964;2022-09-27T00:31:30;9.40;99.90
39219;DHT22;24934;52.752;6.964;2022-09-27T00:33:59;9.30;99.90
39219;DHT22;24934;52.752;6.964;2022-09-27T00:36:25;9.30;99.90
39219;DHT22;24934;52.752;6.964;2022-09-27T00:38:51;9.30;99.90
39219;DHT22;24934;52.752;6.964;2022-09-27T00:41:23;9.20;99.90
39219;DHT22;24934;52.752;6.964;2022-09-27T00:43:52;9.20;99.90
39219;DHT22;24934;52.752;6.964;2022-09-27T00:49:25;9.10;99.90
39219;DHT22;24934;52.752;6.964;2022-09-27T00:51:56;9.00;99.90
39219;DHT22;24934;52.752;6.964;2022-09-27T00:54:25;8.90;99.90
39219;DHT22;24934;52.752;6.964;2022-09-27T00:56:52;8.90;99.90
39219;DHT22;24934;52.752;6.964;2022-09-27T00:59:38;8.80;99.90
39219;DHT22;24934;52.752;6.964;2022-09-27T01:02:05;8.80;99.90
39219;DHT22;24934;52.752;6.964;2022-09-27T01:04:31;8.80;99.90
39219;DHT22;24934;52.752;6.964;2022-09-27T01:06:58;8.80;99.90
39219;DHT22;24934;52.752;6.964;2022-09-27T01:09:24;8.70;99.90
39219;DHT22;24934;52.752;6.964;2022-09-27T01:11:55;8.70;99.90
39219;DHT22;24934;52.752;6.964;2022-09-27T01:14:45;8.70;99.90
39219;DHT22;24934;52.752;6.964;2022-09-27T01:17:46;8.70;99.90
39219;DHT22;24934;52.752;6.964;2022-09-27T01:20:36;8.70;99.90
39219;DHT22;24934;52.752;6.964;2022-09-27T01:23:24;8.70;99.90
39219;DHT22;24934;52.752;6.964;2022-09-27T01:26:11;8.70;99.90
39219;DHT22;24934;52.752;6.964;2022-09-27T01:29:14;8.70;99.90
39219;DHT22;24934;52.752;6.964;2022-09-27T01:32:06;8.70;99.90
39219;DHT22;24934;52.752;6.964;2022-09-27T01:34:46;8.70;99.90
39219;DHT22;24934;52.752;6.964;2022-09-27T01:42:57;8.70;99.90
39219;DHT22;24934;52.752;6.964;2022-09-27T01:48:08;8.70;99.90
39219;DHT22;24934;52.752;6.964;2022-09-27T01:50:44;8.70;99.90
39219;DHT22;24934;52.752;6.964;2022-09-27T01:53:16;8.70;99.90
39219;DHT22;24934;52.752;6.964;2022-09-27T01:55:45;8.70;99.90
39219;DHT22;24934;52.752;6.964;2022-09-27T01:58:18;8.70;99.90
39219;DHT22;24934;52.752;6.964;2022-09-27T02:00:48;8.70;99.90
39219;DHT22;24934;52.752;6.964;2022-09-27T02:03:19;8.60;99.90
39219;DHT22;24934;52.752;6.964;2022-09-27T02:05:51;8.60;99.90
39219;DHT22;24934;52.752;6.964;2022-09-27T02:10:51;8.60;99.90
39219;DHT22;24934;52.752;6.964;2022-09-27T02:13:31;8.60;99.90
39219;DHT22;24934;52.752;6.964;2022-09-27T02:16:27;8.50;99.90
39219;DHT22;24934;52.752;6.964;2022-09-27T02:21:49;8.50;99.90
39219;DHT22;24934;52.752;6.964;2022-09-27T02:24:23;8.50;99.90
39219;DHT22;24934;52.752;6.964;2022-09-27T02:27:01;8.60;99.90
39219;DHT22;24934;52.752;6.964;2022-09-27T02:29:44;8.60;99.90
39219;DHT22;24934;52.752;6.964;2022-09-27T02:32:11;8.60;99.90
39219;DHT22;24934;52.752;6.964;2022-09-27T02:34:38;8.60;99.90
39219;DHT22;24934;52.752;6.964;2022-09-27T02:37:05;8.60;99.90
39219;DHT22;24934;52.752;6.964;2022-09-27T02:39:31;8.60;99.90
39219;DHT22;24934;52.752;6.964;2022-09-27T02:41:56;8.60;99.90
39219;DHT22;24934;52.752;6.964;2022-09-27T02:44:25;8.60;99.90
39219;DHT22;24934;52.752;6.964;2022-09-27T02:49:43;8.70;99.90
39219;DHT22;24934;52.752;6.964;2022-09-27T02:52:25;8.70;99.90
39219;DHT22;24934;52.752;6.964;2022-09-27T03:02:46;8.60;99.90
39219;DHT22;24934;52.752;6.964;2022-09-27T03:05:20;8.60;99.90
39219;DHT22;24934;52.752;6.964;2022-09-27T03:07:47;8.50;99.90
39219;DHT22;24934;52.752;6.964;2022-09-27T03:10:24;8.50;99.90
39219;DHT22;24934;52.752;6.964;2022-09-27T03:12:50;8.50;99.90
39219;DHT22;24934;52.752;6.964;2022-09-27T03:15:16;8.50;99.90
39219;DHT22;24934;52.752;6.964;2022-09-27T03:17:42;8.50;99.90
39219;DHT22;24934;52.752;6.964;2022-09-27T03:20:08;8.50;99.90
39219;DHT22;24934;52.752;6.964;2022-09-27T03:22:34;8.50;99.90
39219;DHT22;24934;52.752;6.964;2022-09-27T03:25:00;8.40;99.90
39219;DHT22;24934;52.752;6.964;2022-09-27T03:27:25;8.40;99.90
39219;DHT22;24934;52.752;6.964;2022-09-27T03:29:51;8.40;99.90
39219;DHT22;24934;52.752;6.964;2022-09-27T03:32:17;8.40;99.90
39219;DHT22;24934;52.752;6.964;2022-09-27T03:34:43;8.30;99.90
39219;DHT22;24934;52.752;6.964;2022-09-27T03:37:09;8.30;99.90
39219;DHT22;24934;52.752;6.964;2022-09-27T03:39:34;8.30;99.90
39219;DHT22;24934;52.752;6.964;2022-09-27T03:42:00;8.20;99.90
39219;DHT22;24934;52.752;6.964;2022-09-27T03:44:25;8.20;99.90
39219;DHT22;24934;52.752;6.964;2022-09-27T03:46:51;8.20;99.90
39219;DHT22;24934;52.752;6.964;2022-09-27T03:49:17;8.20;99.90
39219;DHT22;24934;52.752;6.964;2022-09-27T03:51:43;8.10;99.90
39219;DHT22;24934;52.752;6.964;2022-09-27T03:54:09;8.10;99.90
39219;DHT22;24934;52.752;6.964;2022-09-27T03:56:35;8.10;99.90
39219;DHT22;24934;52.752;6.964;2022-09-27T03:59:00;8.10;99.90
39219;DHT22;24934;52.752;6.964;2022-09-27T04:01:26;8.10;99.90
39219;DHT22;24934;52.752;6.964;2022-09-27T04:03:53;8.10;99.90
39219;DHT22;24934;52.752;6.964;2022-09-27T04:06:19;8.00;99.90
39219;DHT22;24934;52.752;6.964;2022-09-27T04:08:45;8.00;99.90
39219;DHT22;24934;52.752;6.964;2022-09-27T04:11:12;8.00;99.90
39219;DHT22;24934;52.752;6.964;2022-09-27T04:13:38;7.90;99.90
39219;DHT22;24934;52.752;6.964;2022-09-27T04:16:04;8.00;99.90
39219;DHT22;24934;52.752;6.964;2022-09-27T04:18:29;8.00;99.90
39219;DHT22;24934;52.752;6.964;2022-09-27T04:20:55;7.90;99.90
39219;DHT22;24934;52.752;6.964;2022-09-27T04:23:21;7.90;99.90
39219;DHT22;24934;52.752;6.964;2022-09-27T04:25:47;7.90;99.90
39219;DHT22;24934;52.752;6.964;2022-09-27T04:28:12;7.80;99.90
39219;DHT22;24934;52.752;6.964;2022-09-27T04:30:38;7.80;99.90
39219;DHT22;24934;52.752;6.964;2022-09-27T04:33:04;7.90;99.90
39219;DHT22;24934;52.752;6.964;2022-09-27T04:35:30;7.80;99.90
39219;DHT22;24934;52.752;6.964;2022-09-27T04:38:14;7.80;99.90
39219;DHT22;24934;52.752;6.964;2022-09-27T04:40:39;7.80;99.90
39219;DHT22;24934;52.752;6.964;2022-09-27T04:43:06;7.80;99.90
39219;DHT22;24934;52.752;6.964;2022-09-27T04:45:32;7.80;99.90
39219;DHT22;24934;52.752;6.964;2022-09-27T04:47:58;7.90;99.90
39219;DHT22;24934;52.752;6.964;2022-09-27T04:50:24;7.90;99.90
39219;DHT22;24934;52.752;6.964;2022-09-27T04:52:53;7.90;99.90
39219;DHT22;24934;52.752;6.964;2022-09-27T04:55:22;7.90;99.90
39219;DHT22;24934;52.752;6.964;2022-09-27T04:57:48;7.90;99.90
39219;DHT22;24934;52.752;6.964;2022-09-27T05:00:14;7.90;99.90
39219;DHT22;24934;52.752;6.964;2022-09-27T05:02:42;7.90;99.90
39219;DHT22;24934;52.752;6.964;2022-09-27T05:05:08;7.90;99.90
39219;DHT22;24934;52.752;6.964;2022-09-27T05:07:36;7.90;99.90
39219;DHT22;24934;52.752;6.964;2022-09-27T05:10:02;7.90;99.90
39219;DHT22;24934;52.752;6.964;2022-09-27T05:12:28;7.80;99.90
39219;DHT22;24934;52.752;6.964;2022-09-27T05:14:53;7.80;99.90
39219;DHT22;24934;52.752;6.964;2022-09-27T05:17:19;7.80;99.90
39219;DHT22;24934;52.752;6.964;2022-09-27T05:19:47;7.80;99.90
39219;DHT22;24934;52.752;6.964;2022-09-27T05:22:12;7.80;99.90
39219;DHT22;24934;52.752;6.964;2022-09-27T05:24:38;7.70;99.90
39219;DHT22;24934;52.752;6.964;2022-09-27T05:27:04;7.70;99.90
39219;DHT22;24934;52.752;6.964;2022-09-27T05:29:33;7.70;99.90
39219;DHT22;24934;52.752;6.964;2022-09-27T05:32:00;7.70;99.90
39219;DHT22;24934;52.752;6.964;2022-09-27T05:34:26;7.70;99.90
39219;DHT22;24934;52.752;6.964;2022-09-27T05:36:51;7.70;99.90
39219;DHT22;24934;52.752;6.964;2022-09-27T05:39:17;7.80;99.90
39219;DHT22;24934;52.752;6.964;2022-09-27T05:41:44;7.80;99.90
39219;DHT22;24934;52.752;6.964;2022-09-27T05:44:10;7.80;99.90
39219;DHT22;24934;52.752;6.964;2022-09-27T05:46:37;7.80;99.90
39219;DHT22;24934;52.752;6.964;2022-09-27T05:49:03;7.80;99.90
39219;DHT22;24934;52.752;6.964;2022-09-27T05:51:29;7.80;99.90
39219;DHT22;24934;52.752;6.964;2022-09-27T05:53:55;7.80;99.90
39219;DHT22;24934;52.752;6.964;2022-09-27T05:56:21;7.90;99.90
39219;DHT22;24934;52.752;6.964;2022-09-27T05:58:46;7.90;99.90
39219;DHT22;24934;52.752;6.964;2022-09-27T06:01:12;7.90;99.90
39219;DHT22;24934;52.752;6.964;2022-09-27T06:03:37;7.90;99.90
39219;DHT22;24934;52.752;6.964;2022-09-27T06:06:04;8.00;99.90
39219;DHT22;24934;52.752;6.964;2022-09-27T06:08:35;8.00;99.90
39219;DHT22;24934;52.752;6.964;2022-09-27T06:11:02;8.10;99.90
39219;DHT22;24934;52.752;6.964;2022-09-27T06:13:30;8.10;99.90
39219;DHT22;24934;52.752;6.964;2022-09-27T06:16:01;8.20;99.90
39219;DHT22;24934;52.752;6.964;2022-09-27T06:18:27;8.20;99.90
39219;DHT22;24934;52.752;6.964;2022-09-27T06:20:53;8.20;99.90
39219;DHT22;24934;52.752;6.964;2022-09-27T06:23:21;8.30;99.90
39219;DHT22;24934;52.752;6.964;2022-09-27T06:25:48;8.20;99.90
39219;DHT22;24934;52.752;6.964;2022-09-27T06:28:16;8.20;99.90
39219;DHT22;24934;52.752;6.964;2022-09-27T06:30:44;8.30;99.90
39219;DHT22;24934;52.752;6.964;2022-09-27T06:33:13;8.30;99.90
39219;DHT22;24934;52.752;6.964;2022-09-27T06:35:39;8.30;99.90
39219;DHT22;24934;52.752;6.964;2022-09-27T06:38:06;8.30;99.90
39219;DHT22;24934;52.752;6.964;2022-09-27T06:40:34;8.30;99.90
39219;DHT22;24934;52.752;6.964;2022-09-27T06:43:09;8.30;99.90
39219;DHT22;24934;52.752;6.964;2022-09-27T06:45:36;8.30;99.90
39219;DHT22;24934;52.752;6.964;2022-09-27T06:48:03;8.20;99.90
39219;DHT22;24934;52.752;6.964;2022-09-27T06:50:31;8.20;99.90
39219;DHT22;24934;52.752;6.964;2022-09-27T06:52:57;8.30;99.90
39219;DHT22;24934;52.752;6.964;2022-09-27T06:55:23;8.30;99.90
39219;DHT22;24934;52.752;6.964;2022-09-27T06:57:55;8.30;99.90
39219;DHT22;24934;52.752;6.964;2022-09-27T07:00:40;8.40;99.90
39219;DHT22;24934;52.752;6.964;2022-09-27T07:03:09;8.40;99.90
39219;DHT22;24934;52.752;6.964;2022-09-27T07:05:36;8.50;99.90
39219;DHT22;24934;52.752;6.964;2022-09-27T07:08:02;8.50;99.90
39219;DHT22;24934;52.752;6.964;2022-09-27T07:10:29;8.60;99.90
39219;DHT22;24934;52.752;6.964;2022-09-27T07:13:05;8.60;99.90
39219;DHT22;24934;52.752;6.964;2022-09-27T07:15:35;8.60;99.90
39219;DHT22;24934;52.752;6.964;2022-09-27T07:18:03;8.60;99.90
39219;DHT22;24934;52.752;6.964;2022-09-27T07:20:29;8.60;99.90
39219;DHT22;24934;52.752;6.964;2022-09-27T07:22:55;8.80;99.90
39219;DHT22;24934;52.752;6.964;2022-09-27T07:25:21;9.10;99.90
39219;DHT22;24934;52.752;6.964;2022-09-27T07:27:47;9.30;99.90
39219;DHT22;24934;52.752;6.964;2022-09-27T07:30:14;9.30;99.90
39219;DHT22;24934;52.752;6.964;2022-09-27T07:32:40;9.30;99.90
39219;DHT22;24934;52.752;6.964;2022-09-27T07:35:07;9.40;99.90
39219;DHT22;24934;52.752;6.964;2022-09-27T07:37:34;10.00;99.90
39219;DHT22;24934;52.752;6.964;2022-09-27T07:40:00;10.90;99.90
39219;DHT22;24934;52.752;6.964;2022-09-27T07:42:27;12.10;99.90
39219;DHT22;24934;52.752;6.964;2022-09-27T07:44:53;13.20;99.90
39219;DHT22;24934;52.752;6.964;2022-09-27T07:47:20;13.50;99.90
39219;DHT22;24934;52.752;6.964;2022-09-27T07:49:48;13.60;99.90
39219;DHT22;24934;52.752;6.964;2022-09-27T07:52:14;13.50;99.90
39219;DHT22;24934;52.752;6.964;2022-09-27T07:54:39;13.60;99.90
39219;DHT22;24934;52.752;6.964;2022-09-27T07:57:05;13.70;99.90
39219;DHT22;24934;52.752;6.964;2022-09-27T07:59:30;13.40;99.90
39219;DHT22;24934;52.752;6.964;2022-09-27T08:01:56;13.20;99.90
39219;DHT22;24934;52.752;6.964;2022-09-27T08:04:22;13.00;99.90
39219;DHT22;24934;52.752;6.964;2022-09-27T08:06:47;12.70;99.90
39219;DHT22;24934;52.752;6.964;2022-09-27T08:09:13;12.30;99.90
39219;DHT22;24934;52.752;6.964;2022-09-27T08:11:38;11.90;99.90
39219;DHT22;24934;52.752;6.964;2022-09-27T08:14:04;11.60;99.90
39219;DHT22;24934;52.752;6.964;2022-09-27T08:16:32;11.20;99.90
39219;DHT22;24934;52.752;6.964;2022-09-27T08:18:58;11.00;99.90
39219;DHT22;24934;52.752;6.964;2022-09-27T08:21:24;10.80;99.90
39219;DHT22;24934;52.752;6.964;2022-09-27T08:23:49;10.60;99.90
39219;DHT22;24934;52.752;6.964;2022-09-27T08:26:15;10.50;99.90
39219;DHT22;24934;52.752;6.964;2022-09-27T08:28:41;10.30;99.90
39219;DHT22;24934;52.752;6.964;2022-09-27T08:31:06;10.30;99.90
39219;DHT22;24934;52.752;6.964;2022-09-27T08:33:32;10.30;99.90
39219;DHT22;24934;52.752;6.964;2022-09-27T08:35:58;10.30;99.90
39219;DHT22;24934;52.752;6.964;2022-09-27T08:38:23;10.40;99.90
39219;DHT22;24934;52.752;6.964;2022-09-27T08:40:55;10.80;99.90
39219;DHT22;24934;52.752;6.964;2022-09-27T08:43:38;12.00;99.90
39219;DHT22;24934;52.752;6.964;2022-09-27T08:48:37;15.20;99.90
39219;DHT22;24934;52.752;6.964;2022-09-27T08:51:05;16.20;99.90
39219;DHT22;24934;52.752;6.964;2022-09-27T08:53:42;16.50;99.90
39219;DHT22;24934;52.752;6.964;2022-09-27T08:56:11;16.80;99.90
39219;DHT22;24934;52.752;6.964;2022-09-27T08:58:46;17.30;99.90
39219;DHT22;24934;52.752;6.964;2022-09-27T09:01:17;17.70;99.90
39219;DHT22;24934;52.752;6.964;2022-09-27T09:03:49;17.20;99.90
39219;DHT22;24934;52.752;6.964;2022-09-27T09:06:25;17.00;99.90
39219;DHT22;24934;52.752;6.964;2022-09-27T09:09:17;17.30;99.90
39219;DHT22;24934;52.752;6.964;2022-09-27T09:28:36;16.00;99.90
39219;DHT22;24934;52.752;6.964;2022-09-27T09:33:49;15.10;99.90
39219;DHT22;24934;52.752;6.964;2022-09-27T09:42:25;14.90;99.90
39219;DHT22;24934;52.752;6.964;2022-09-27T09:48:09;16.60;99.90
39219;DHT22;24934;52.752;6.964;2022-09-27T09:50:45;16.70;99.90
39219;DHT22;24934;52.752;6.964;2022-09-27T09:53:21;16.20;99.90
39219;DHT22;24934;52.752;6.964;2022-09-27T09:55:56;15.30;99.90
39219;DHT22;24934;52.752;6.964;2022-09-27T10:00:59;14.60;99.90
39219;DHT22;24934;52.752;6.964;2022-09-27T10:03:33;14.40;99.90
39219;DHT22;24934;52.752;6.964;2022-09-27T10:05:59;14.60;99.90
39219;DHT22;24934;52.752;6.964;2022-09-27T10:08:25;14.50;99.90
39219;DHT22;24934;52.752;6.964;2022-09-27T10:10:50;14.70;99.90
39219;DHT22;24934;52.752;6.964;2022-09-27T10:13:20;15.20;99.90
39219;DHT22;24934;52.752;6.964;2022-09-27T10:16:01;15.20;99.90
39219;DHT22;24934;52.752;6.964;2022-09-27T10:18:31;14.50;99.90
39219;DHT22;24934;52.752;6.964;2022-09-27T10:21:01;13.60;99.90
39219;DHT22;24934;52.752;6.964;2022-09-27T10:23:28;12.80;99.90
39219;DHT22;24934;52.752;6.964;2022-09-27T10:25:59;12.20;99.90
39219;DHT22;24934;52.752;6.964;2022-09-27T10:28:31;11.80;99.90
39219;DHT22;24934;52.752;6.964;2022-09-27T10:31:09;11.50;99.90
39219;DHT22;24934;52.752;6.964;2022-09-27T10:33:56;11.30;99.90
39219;DHT22;24934;52.752;6.964;2022-09-27T10:36:29;11.20;99.90
39219;DHT22;24934;52.752;6.964;2022-09-27T10:38:59;11.10;99.90
39219;DHT22;24934;52.752;6.964;2022-09-27T10:41:35;11.20;99.90
39219;DHT22;24934;52.752;6.964;2022-09-27T10:46:47;12.00;99.90
39219;DHT22;24934;52.752;6.964;2022-09-27T10:49:34;12.80;99.90
39219;DHT22;24934;52.752;6.964;2022-09-27T10:52:24;13.70;99.90
39219;DHT22;24934;52.752;6.964;2022-09-27T10:55:21;14.40;99.90
39219;DHT22;24934;52.752;6.964;2022-09-27T10:57:49;14.90;99.90
39219;DHT22;24934;52.752;6.964;2022-09-27T11:00:31;15.50;99.90
39219;DHT22;24934;52.752;6.964;2022-09-27T11:03:11;16.00;99.90
39219;DHT22;24934;52.752;6.964;2022-09-27T11:05:38;16.20;99.90
39219;DHT22;24934;52.752;6.964;2022-09-27T11:13:27;16.30;99.90
39219;DHT22;24934;52.752;6.964;2022-09-27T11:24:07;15.50;99.90
39219;DHT22;24934;52.752;6.964;2022-09-27T11:26:46;15.70;99.90
39219;DHT22;24934;52.752;6.964;2022-09-27T11:29:31;16.00;99.90
39219;DHT22;24934;52.752;6.964;2022-09-27T11:32:18;16.00;99.90
39219;DHT22;24934;52.752;6.964;2022-09-27T11:46:17;14.80;99.90
39219;DHT22;24934;52.752;6.964;2022-09-27T11:48:57;14.80;99.90
39219;DHT22;24934;52.752;6.964;2022-09-27T11:51:33;15.10;99.90
39219;DHT22;24934;52.752;6.964;2022-09-27T11:54:24;15.70;99.90
39219;DHT22;24934;52.752;6.964;2022-09-27T11:57:23;15.60;99.90
39219;DHT22;24934;52.752;6.964;2022-09-27T12:00:16;14.90;99.90
39219;DHT22;24934;52.752;6.964;2022-09-27T12:03:14;13.90;99.90
39219;DHT22;24934;52.752;6.964;2022-09-27T12:06:10;13.10;99.90
39219;DHT22;24934;52.752;6.964;2022-09-27T12:09:08;12.70;99.90
39219;DHT22;24934;52.752;6.964;2022-09-27T12:11:44;12.40;99.90
39219;DHT22;24934;52.752;6.964;2022-09-27T12:14:35;12.30;99.90
39219;DHT22;24934;52.752;6.964;2022-09-27T12:17:04;12.40;99.90
39219;DHT22;24934;52.752;6.964;2022-09-27T12:19:55;12.40;99.90
39219;DHT22;24934;52.752;6.964;2022-09-27T12:22:36;12.50;99.90
39219;DHT22;24934;52.752;6.964;2022-09-27T12:25:04;13.00;99.90
39219;DHT22;24934;52.752;6.964;2022-09-27T12:27:42;13.40;99.90
39219;DHT22;24934;52.752;6.964;2022-09-27T12:30:11;13.80;99.90
39219;DHT22;24934;52.752;6.964;2022-09-27T12:35:28;14.20;99.90
39219;DHT22;24934;52.752;6.964;2022-09-27T12:38:11;14.20;99.90
39219;DHT22;24934;52.752;6.964;2022-09-27T12:40:45;14.40;99.90
39219;DHT22;24934;52.752;6.964;2022-09-27T12:43:24;14.40;99.90
39219;DHT22;24934;52.752;6.964;2022-09-27T12:51:38;15.10;99.90
39219;DHT22;24934;52.752;6.964;2022-09-27T13:13:04;16.70;99.90
39219;DHT22;24934;52.752;6.964;2022-09-27T13:15:36;17.10;99.90
39219;DHT22;24934;52.752;6.964;2022-09-27T13:18:16;17.40;99.90
39219;DHT22;24934;52.752;6.964;2022-09-27T13:20:51;17.50;99.90
39219;DHT22;24934;52.752;6.964;2022-09-27T13:28:31;16.30;99.90
39219;DHT22;24934;52.752;6.964;2022-09-27T13:31:02;16.00;99.90
39219;DHT22;24934;52.752;6.964;2022-09-27T13:36:27;15.20;99.90
39219;DHT22;24934;52.752;6.964;2022-09-27T13:44:36;14.60;99.90
39219;DHT22;24934;52.752;6.964;2022-09-27T13:47:13;14.60;99.90
39219;DHT22;24934;52.752;6.964;2022-09-27T13:49:42;14.80;99.90
39219;DHT22;24934;52.752;6.964;2022-09-27T13:57:45;14.90;99.90
39219;DHT22;24934;52.752;6.964;2022-09-27T14:02:54;14.70;99.90
39219;DHT22;24934;52.752;6.964;2022-09-27T14:05:27;14.70;99.90
39219;DHT22;24934;52.752;6.964;2022-09-27T14:07:56;14.70;99.90
39219;DHT22;24934;52.752;6.964;2022-09-27T14:10:24;14.50;99.90
39219;DHT22;24934;52.752;6.964;2022-09-27T14:12:52;14.20;99.90
39219;DHT22;24934;52.752;6.964;2022-09-27T14:15:27;13.90;99.90
39219;DHT22;24934;52.752;6.964;2022-09-27T14:17:55;13.70;99.90
39219;DHT22;24934;52.752;6.964;2022-09-27T14:20:48;13.50;99.90
39219;DHT22;24934;52.752;6.964;2022-09-27T14:23:25;13.50;99.90
39219;DHT22;24934;52.752;6.964;2022-09-27T14:25:53;13.40;99.90
39219;DHT22;24934;52.752;6.964;2022-09-27T14:28:29;13.20;99.90
39219;DHT22;24934;52.752;6.964;2022-09-27T14:31:15;13.20;99.90
39219;DHT22;24934;52.752;6.964;2022-09-27T14:33:43;13.20;99.90
39219;DHT22;24934;52.752;6.964;2022-09-27T14:36:30;13.20;99.90
39219;DHT22;24934;52.752;6.964;2022-09-27T14:39:30;13.20;99.90
39219;DHT22;24934;52.752;6.964;2022-09-27T14:42:01;13.10;99.90
39219;DHT22;24934;52.752;6.964;2022-09-27T14:44:27;13.10;99.90
39219;DHT22;24934;52.752;6.964;2022-09-27T14:47:14;13.00;99.90
39219;DHT22;24934;52.752;6.964;2022-09-27T14:49:59;12.90;99.90
39219;DHT22;24934;52.752;6.964;2022-09-27T14:52:32;12.80;99.90
39219;DHT22;24934;52.752;6.964;2022-09-27T14:55:00;12.60;99.90
39219;DHT22;24934;52.752;6.964;2022-09-27T14:57:29;12.50;99.90
39219;DHT22;24934;52.752;6.964;2022-09-27T14:59:57;12.50;99.90
39219;DHT22;24934;52.752;6.964;2022-09-27T15:02:25;12.50;99.90
39219;DHT22;24934;52.752;6.964;2022-09-27T15:04:52;12.40;99.90
39219;DHT22;24934;52.752;6.964;2022-09-27T15:07:19;12.40;99.90
39219;DHT22;24934;52.752;6.964;2022-09-27T15:09:47;12.30;99.90
39219;DHT22;24934;52.752;6.964;2022-09-27T15:12:22;12.30;99.90
39219;DHT22;24934;52.752;6.964;2022-09-27T15:14:50;12.30;99.90
39219;DHT22;24934;52.752;6.964;2022-09-27T15:17:20;12.40;99.90
39219;DHT22;24934;52.752;6.964;2022-09-27T15:20:16;12.30;99.90
39219;DHT22;24934;52.752;6.964;2022-09-27T15:22:43;12.30;99.90
39219;DHT22;24934;52.752;6.964;2022-09-27T15:25:22;12.40;99.90
39219;DHT22;24934;52.752;6.964;2022-09-27T15:27:50;12.30;99.90
39219;DHT22;24934;52.752;6.964;2022-09-27T15:30:34;12.30;99.90
39219;DHT22;24934;52.752;6.964;2022-09-27T15:33:00;12.10;99.90
39219;DHT22;24934;52.752;6.964;2022-09-27T15:35:29;11.90;99.90
39219;DHT22;24934;52.752;6.964;2022-09-27T15:45:59;11.50;99.90
39219;DHT22;24934;52.752;6.964;2022-09-27T15:48:29;11.50;99.90
39219;DHT22;24934;52.752;6.964;2022-09-27T15:50:56;11.30;99.90
39219;DHT22;24934;52.752;6.964;2022-09-27T15:55:57;11.30;99.90
39219;DHT22;24934;52.752;6.964;2022-09-27T15:58:23;11.30;99.90
39219;DHT22;24934;52.752;6.964;2022-09-27T16:00:55;11.20;99.90
39219;DHT22;24934;52.752;6.964;2022-09-27T16:03:22;11.20;99.90
39219;DHT22;24934;52.752;6.964;2022-09-27T16:05:48;11.20;99.90
39219;DHT22;24934;52.752;6.964;2022-09-27T16:08:14;11.20;99.90
39219;DHT22;24934;52.752;6.964;2022-09-27T16:10:47;11.10;99.90
39219;DHT22;24934;52.752;6.964;2022-09-27T16:13:14;11.00;99.90
39219;DHT22;24934;52.752;6.964;2022-09-27T16:15:40;11.00;99.90
39219;DHT22;24934;52.752;6.964;2022-09-27T16:18:05;10.90;99.90
39219;DHT22;24934;52.752;6.964;2022-09-27T16:20:31;10.90;99.90
39219;DHT22;24934;52.752;6.964;2022-09-27T16:22:57;10.90;99.90
39219;DHT22;24934;52.752;6.964;2022-09-27T16:25:23;10.90;99.90
39219;DHT22;24934;52.752;6.964;2022-09-27T16:27:50;10.80;99.90
39219;DHT22;24934;52.752;6.964;2022-09-27T16:30:17;10.80;99.90
39219;DHT22;24934;52.752;6.964;2022-09-27T16:32:47;10.70;99.90
39219;DHT22;24934;52.752;6.964;2022-09-27T16:35:15;10.70;99.90
39219;DHT22;24934;52.752;6.964;2022-09-27T16:37:41;10.70;99.90
39219;DHT22;24934;52.752;6.964;2022-09-27T16:40:07;10.60;99.90
39219;DHT22;24934;52.752;6.964;2022-09-27T16:42:34;10.50;99.90
39219;DHT22;24934;52.752;6.964;2022-09-27T16:45:00;10.50;99.90
39219;DHT22;24934;52.752;6.964;2022-09-27T16:47:27;10.40;99.90
39219;DHT22;24934;52.752;6.964;2022-09-27T16:49:53;10.30;99.90
39219;DHT22;24934;52.752;6.964;2022-09-27T16:52:37;10.30;99.90
39219;DHT22;24934;52.752;6.964;2022-09-27T16:55:04;10.30;99.90
39219;DHT22;24934;52.752;6.964;2022-09-27T16:57:31;10.20;99.90
39219;DHT22;24934;52.752;6.964;2022-09-27T16:59:59;10.20;99.90
39219;DHT22;24934;52.752;6.964;2022-09-27T17:02:25;10.10;99.90
39219;DHT22;24934;52.752;6.964;2022-09-27T17:04:51;10.00;99.90
39219;DHT22;24934;52.752;6.964;2022-09-27T17:07:17;9.90;99.90
39219;DHT22;24934;52.752;6.964;2022-09-27T17:09:42;9.90;99.90
39219;DHT22;24934;52.752;6.964;2022-09-27T17:12:10;9.80;99.90
39219;DHT22;24934;52.752;6.964;2022-09-27T17:14:35;9.70;99.90
39219;DHT22;24934;52.752;6.964;2022-09-27T17:17:01;9.60;99.90
39219;DHT22;24934;52.752;6.964;2022-09-27T17:19:27;9.60;99.90
39219;DHT22;24934;52.752;6.964;2022-09-27T17:21:52;9.60;99.90
39219;DHT22;24934;52.752;6.964;2022-09-27T17:24:20;9.50;99.90
39219;DHT22;24934;52.752;6.964;2022-09-27T17:26:46;9.50;99.90
39219;DHT22;24934;52.752;6.964;2022-09-27T17:29:12;9.40;99.90
39219;DHT22;24934;52.752;6.964;2022-09-27T17:31:39;9.40;99.90
39219;DHT22;24934;52.752;6.964;2022-09-27T17:34:13;9.40;99.90
39219;DHT22;24934;52.752;6.964;2022-09-27T17:36:42;9.40;99.90
39219;DHT22;24934;52.752;6.964;2022-09-27T17:39:11;9.40;99.90
39219;DHT22;24934;52.752;6.964;2022-09-27T17:41:37;9.40;99.90
39219;DHT22;24934;52.752;6.964;2022-09-27T17:44:03;9.40;99.90
39219;DHT22;24934;52.752;6.964;2022-09-27T17:46:32;9.40;99.90
39219;DHT22;24934;52.752;6.964;2022-09-27T17:48:58;9.40;99.90
39219;DHT22;24934;52.752;6.964;2022-09-27T17:51:45;9.30;99.90
39219;DHT22;24934;52.752;6.964;2022-09-27T17:54:11;9.30;99.90
39219;DHT22;24934;52.752;6.964;2022-09-27T17:56:41;9.30;99.90
39219;DHT22;24934;52.752;6.964;2022-09-27T17:59:09;9.30;99.90
39219;DHT22;24934;52.752;6.964;2022-09-27T18:01:36;9.20;99.90
39219;DHT22;24934;52.752;6.964;2022-09-27T18:04:03;9.20;99.90
39219;DHT22;24934;52.752;6.964;2022-09-27T18:06:29;9.10;99.90
39219;DHT22;24934;52.752;6.964;2022-09-27T18:08:55;9.10;99.90
39219;DHT22;24934;52.752;6.964;2022-09-27T18:11:23;9.10;99.90
39219;DHT22;24934;52.752;6.964;2022-09-27T18:13:57;9.00;99.90
39219;DHT22;24934;52.752;6.964;2022-09-27T18:16:27;8.90;99.90
39219;DHT22;24934;52.752;6.964;2022-09-27T18:19:02;8.90;99.90
39219;DHT22;24934;52.752;6.964;2022-09-27T18:21:29;8.80;99.90
39219;DHT22;24934;52.752;6.964;2022-09-27T18:23:57;8.80;99.90
39219;DHT22;24934;52.752;6.964;2022-09-27T18:26:24;8.80;99.90
39219;DHT22;24934;52.752;6.964;2022-09-27T18:28:53;8.80;99.90
39219;DHT22;24934;52.752;6.964;2022-09-27T18:31:20;8.70;99.90